createdAt,value
2018-06-07T00:02:07.439Z,5.53
2018-06-07T00:04:41.779Z,4.57
2018-06-07T00:07:16.075Z,5.47
2018-06-07T00:09:50.342Z,5.03
2018-06-07T00:12:25.914Z,4.97
2018-06-07T00:15:01.723Z,4.77
2018-06-07T00:17:35.880Z,4.70
2018-06-07T00:20:10.139Z,5.40
2018-06-07T00:22:44.476Z,4.83
2018-06-07T00:25:18.985Z,5.27
2018-06-07T00:27:53.313Z,5.40
2018-06-07T00:30:27.679Z,4.57
2018-06-07T00:33:02.099Z,5.35
2018-06-07T00:35:41.862Z,4.87
2018-06-07T00:38:16.410Z,5.30
2018-06-07T00:40:52.729Z,5.20
2018-06-07T00:43:28.853Z,4.73
2018-06-07T00:46:03.485Z,5.10
2018-06-07T00:48:37.896Z,5.07
2018-06-07T00:51:12.075Z,4.73
2018-06-07T00:53:46.478Z,5.07
2018-06-07T00:56:32.243Z,4.47
2018-06-07T00:59:06.498Z,5.17
2018-06-07T01:01:40.859Z,4.30
2018-06-07T01:04:15.399Z,4.73
2018-06-07T01:06:50.258Z,4.70
2018-06-07T01:09:24.694Z,4.83
2018-06-07T01:11:59.046Z,4.87
2018-06-07T01:14:33.290Z,4.57
2018-06-07T01:17:07.707Z,4.57
2018-06-07T01:19:41.960Z,4.50
2018-06-07T01:22:16.201Z,4.90
2018-06-07T01:24:50.501Z,4.17
2018-06-07T01:27:30.106Z,4.40
2018-06-07T01:30:21.393Z,4.90
2018-06-07T01:33:26.614Z,4.73
2018-06-07T01:36:01.061Z,4.93
2018-06-07T01:38:46.564Z,5.07
2018-06-07T01:41:20.933Z,4.90
2018-06-07T01:43:55.238Z,4.57
2018-06-07T01:46:29.562Z,5.37
2018-06-07T01:49:03.897Z,4.83
2018-06-07T01:51:38.198Z,4.80
2018-06-07T01:54:12.494Z,4.67
2018-06-07T01:56:46.830Z,4.90
2018-06-07T01:59:21.083Z,4.53
2018-06-07T02:01:55.368Z,4.90
2018-06-07T02:04:29.721Z,5.10
2018-06-07T02:07:03.989Z,5.10
2018-06-07T02:09:38.081Z,4.30
2018-06-07T02:12:12.291Z,5.23
2018-06-07T02:14:46.436Z,5.00
2018-06-07T02:17:20.795Z,5.50
2018-06-07T02:19:55.070Z,5.03
2018-06-07T02:22:29.241Z,5.10
2018-06-07T02:25:03.534Z,4.80
2018-06-07T02:27:37.777Z,4.93
2018-06-07T02:30:12.063Z,4.60
2018-06-07T02:32:46.431Z,4.70
2018-06-07T02:35:20.703Z,4.73
2018-06-07T02:37:55.023Z,4.57
2018-06-07T02:40:29.188Z,4.50
2018-06-07T02:43:03.570Z,4.67
2018-06-07T02:45:37.853Z,4.20
2018-06-07T02:48:12.215Z,4.27
2018-06-07T02:50:46.498Z,4.50
2018-06-07T02:53:20.855Z,4.40
2018-06-07T02:55:55.122Z,4.50
2018-06-07T02:58:29.474Z,4.47
2018-06-07T03:01:03.678Z,4.37
2018-06-07T03:03:38.118Z,4.23
2018-06-07T03:06:12.426Z,4.30
2018-06-07T03:08:46.779Z,4.87
2018-06-07T03:11:20.977Z,4.03
2018-06-07T03:13:55.131Z,4.00
2018-06-07T03:16:29.398Z,4.60
2018-06-07T03:19:03.835Z,4.10
2018-06-07T03:21:38.130Z,4.50
2018-06-07T03:24:12.440Z,4.43
2018-06-07T03:26:46.669Z,4.40
2018-06-07T03:29:20.902Z,3.90
2018-06-07T03:31:55.243Z,4.10
2018-06-07T03:34:29.539Z,3.93
2018-06-07T03:37:03.758Z,3.90
2018-06-07T03:39:37.990Z,4.43
2018-06-07T03:42:12.385Z,4.13
2018-06-07T03:44:46.774Z,3.97
2018-06-07T03:47:20.976Z,4.20
2018-06-07T03:49:55.188Z,3.77
2018-06-07T03:52:29.639Z,4.10
2018-06-07T03:55:03.966Z,3.83
2018-06-07T03:57:38.294Z,4.00
2018-06-07T04:00:12.518Z,3.83
2018-06-07T04:02:46.686Z,3.57
2018-06-07T04:05:20.986Z,3.57
2018-06-07T04:07:55.245Z,4.03
2018-06-07T04:10:29.719Z,4.10
2018-06-07T04:13:03.826Z,3.80
2018-06-07T04:15:38.015Z,4.20
2018-06-07T04:18:12.201Z,3.63
2018-06-07T04:20:46.618Z,3.93
2018-06-07T04:23:20.903Z,3.70
2018-06-07T04:25:55.205Z,3.63
2018-06-07T04:28:29.321Z,3.30
2018-06-07T04:31:03.670Z,3.47
2018-06-07T04:33:37.842Z,3.73
2018-06-07T04:36:12.169Z,3.40
2018-06-07T04:38:46.328Z,4.07
2018-06-07T04:41:20.543Z,3.43
2018-06-07T04:43:54.795Z,3.63
2018-06-07T04:46:29.054Z,4.03
2018-06-07T04:49:03.219Z,3.63
2018-06-07T04:51:37.398Z,3.30
2018-06-07T04:54:12.793Z,4.20
2018-06-07T04:56:47.151Z,3.63
2018-06-07T04:59:21.454Z,3.43
2018-06-07T05:01:55.808Z,3.40
2018-06-07T05:04:30.130Z,3.13
2018-06-07T05:07:04.296Z,3.53
2018-06-07T05:09:38.570Z,3.40
2018-06-07T05:12:12.981Z,3.23
2018-06-07T05:14:47.135Z,3.13
2018-06-07T05:17:21.462Z,3.40
2018-06-07T05:19:55.643Z,2.77
2018-06-07T05:22:29.846Z,2.80
2018-06-07T05:25:04.027Z,2.60
2018-06-07T05:27:38.233Z,3.10
2018-06-07T05:30:12.715Z,3.17
2018-06-07T05:32:46.950Z,3.40
2018-06-07T05:35:21.117Z,3.20
2018-06-07T05:37:55.538Z,2.83
2018-06-07T05:40:30.118Z,3.17
2018-06-07T05:43:04.439Z,3.20
2018-06-07T05:45:38.728Z,3.23
2018-06-07T05:48:13.009Z,2.97
2018-06-07T05:50:47.182Z,3.10
2018-06-07T05:53:21.366Z,3.23
2018-06-07T05:55:55.603Z,3.33
2018-06-07T05:58:29.735Z,3.10
2018-06-07T06:01:04.027Z,2.90
2018-06-07T06:03:38.215Z,3.57
2018-06-07T06:06:12.526Z,3.30
2018-06-07T06:08:46.677Z,2.83
2018-06-07T06:11:20.880Z,2.70
2018-06-07T06:13:55.144Z,3.10
2018-06-07T06:16:29.478Z,3.43
2018-06-07T06:19:03.632Z,3.00
2018-06-07T06:21:37.803Z,3.00
2018-06-07T06:24:12.455Z,2.90
2018-06-07T06:26:46.748Z,3.13
2018-06-07T06:29:20.898Z,3.30
2018-06-07T06:31:55.176Z,3.03
2018-06-07T06:34:29.803Z,3.30
2018-06-07T06:37:04.085Z,3.07
2018-06-07T06:39:38.474Z,2.87
2018-06-07T06:42:12.641Z,2.83
2018-06-07T06:44:46.891Z,2.87
2018-06-07T06:47:21.187Z,3.03
2018-06-07T06:49:55.353Z,3.30
2018-06-07T06:52:29.803Z,3.30
2018-06-07T06:55:04.183Z,3.20
2018-06-07T06:57:38.468Z,3.03
2018-06-07T07:00:12.664Z,2.80
2018-06-07T07:02:46.972Z,2.67
2018-06-07T07:05:21.319Z,3.60
2018-06-07T07:07:55.655Z,3.20
2018-06-07T07:10:29.933Z,2.50
2018-06-07T07:13:04.275Z,3.00
2018-06-07T07:15:38.498Z,2.73
2018-06-07T07:18:12.811Z,3.10
2018-06-07T07:20:46.945Z,3.10
2018-06-07T07:23:21.311Z,2.80
2018-06-07T07:25:55.467Z,2.90
2018-06-07T07:28:29.785Z,2.80
2018-06-07T07:31:04.106Z,2.80
2018-06-07T07:33:38.375Z,3.57
2018-06-07T07:36:12.711Z,3.40
2018-06-07T07:38:47.006Z,2.40
2018-06-07T07:41:21.268Z,2.83
2018-06-07T07:43:55.478Z,2.70
2018-06-07T07:46:29.721Z,3.10
2018-06-07T07:49:04.086Z,3.00
2018-06-07T07:51:38.367Z,3.03
2018-06-07T07:54:12.618Z,3.33
2018-06-07T07:56:46.831Z,3.37
2018-06-07T07:59:21.206Z,3.33
2018-06-07T08:01:55.522Z,3.23
2018-06-07T08:04:29.725Z,3.03
2018-06-07T08:07:03.997Z,3.13
2018-06-07T08:09:38.300Z,4.37
2018-06-07T08:12:12.633Z,2.83
2018-06-07T08:14:46.967Z,2.70
2018-06-07T08:17:21.350Z,3.07
2018-06-07T08:19:56.003Z,2.80
2018-06-07T08:22:30.328Z,3.10
2018-06-07T08:25:04.614Z,3.13
2018-06-07T08:27:38.981Z,3.07
2018-06-07T08:30:13.227Z,2.80
2018-06-07T08:32:47.497Z,3.30
2018-06-07T08:35:21.865Z,3.10
2018-06-07T08:37:56.169Z,3.37
2018-06-07T08:40:30.402Z,3.20
2018-06-07T08:43:04.722Z,2.77
2018-06-07T08:45:38.994Z,3.27
2018-06-07T08:48:13.049Z,3.63
2018-06-07T08:50:47.197Z,3.20
2018-06-07T08:53:21.394Z,3.23
2018-06-07T08:55:55.559Z,3.40
2018-06-07T08:58:29.807Z,3.73
2018-06-07T09:01:04.218Z,3.30
2018-06-07T09:03:38.407Z,3.10
2018-06-07T09:06:12.927Z,3.20
2018-06-07T09:08:47.791Z,3.40
2018-06-07T09:11:22.012Z,4.67
2018-06-07T09:13:56.327Z,5.63
2018-06-07T09:16:30.601Z,3.63
2018-06-07T09:19:05.090Z,3.73
2018-06-07T09:21:39.288Z,3.30
2018-06-07T09:24:13.534Z,3.30
2018-06-07T09:26:47.959Z,3.57
2018-06-07T09:29:22.242Z,3.37
2018-06-07T09:31:56.542Z,3.60
2018-06-07T09:34:30.835Z,3.67
2018-06-07T09:37:05.234Z,3.30
2018-06-07T09:39:39.678Z,4.10
2018-06-07T09:42:13.868Z,3.40
2018-06-07T09:44:48.302Z,3.87
2018-06-07T09:47:22.596Z,3.97
2018-06-07T09:49:56.970Z,4.07
2018-06-07T09:52:31.258Z,3.80
2018-06-07T09:55:05.443Z,3.57
2018-06-07T09:57:40.073Z,4.60
2018-06-07T10:00:19.775Z,4.13
2018-06-07T10:02:54.330Z,3.87
2018-06-07T10:05:28.528Z,4.23
2018-06-07T10:08:02.866Z,3.87
2018-06-07T10:10:37.131Z,4.30
2018-06-07T10:13:11.421Z,4.23
2018-06-07T10:15:45.724Z,4.03
2018-06-07T10:18:20.018Z,3.97
2018-06-07T10:20:54.237Z,4.30
2018-06-07T10:23:28.402Z,4.30
2018-06-07T10:26:02.651Z,4.00
2018-06-07T10:28:36.955Z,4.30
2018-06-07T10:31:11.395Z,4.40
2018-06-07T10:33:45.874Z,4.20
2018-06-07T10:36:20.182Z,4.37
2018-06-07T10:38:54.543Z,4.37
2018-06-07T10:41:28.812Z,4.40
2018-06-07T10:44:03.094Z,4.27
2018-06-07T10:46:37.391Z,4.43
2018-06-07T10:49:11.899Z,4.63
2018-06-07T10:51:46.215Z,5.30
2018-06-07T10:54:20.355Z,5.30
2018-06-07T10:56:54.630Z,4.63
2018-06-07T10:59:29.026Z,4.87
2018-06-07T11:02:03.376Z,4.90
2018-06-07T11:04:37.691Z,5.13
2018-06-07T11:07:12.044Z,6.03
2018-06-07T11:09:46.319Z,4.73
2018-06-07T11:12:20.646Z,5.97
2018-06-07T11:14:54.881Z,4.87
2018-06-07T11:17:29.313Z,5.37
2018-06-07T11:20:03.674Z,4.97
2018-06-07T11:22:37.970Z,5.03
2018-06-07T11:25:12.265Z,5.37
2018-06-07T11:27:46.662Z,5.80
2018-06-07T11:30:20.906Z,5.17
2018-06-07T11:32:55.069Z,4.93
2018-06-07T11:35:29.423Z,5.07
2018-06-07T11:38:03.648Z,4.83
2018-06-07T11:40:37.939Z,5.40
2018-06-07T11:43:12.362Z,5.00
2018-06-07T11:45:46.742Z,5.87
2018-06-07T11:48:21.083Z,5.20
2018-06-07T11:50:55.436Z,5.73
2018-06-07T11:53:29.845Z,5.70
2018-06-07T11:56:04.043Z,5.50
2018-06-07T11:58:38.445Z,5.30
2018-06-07T12:01:12.599Z,5.47
2018-06-07T12:03:46.906Z,6.27
2018-06-07T12:06:21.050Z,4.87
2018-06-07T12:08:55.396Z,5.97
2018-06-07T12:11:29.659Z,5.63
2018-06-07T12:14:04.155Z,5.10
2018-06-07T12:16:38.466Z,5.70
2018-06-07T12:19:12.830Z,5.20
2018-06-07T12:21:47.102Z,5.60
2018-06-07T12:24:21.297Z,5.57
2018-06-07T12:26:55.779Z,5.40
2018-06-07T12:29:30.057Z,5.37
2018-06-07T12:32:04.311Z,4.87
2018-06-07T12:34:38.565Z,5.13
2018-06-07T12:37:12.814Z,5.63
2018-06-07T12:39:47.124Z,5.50
2018-06-07T12:42:21.502Z,5.83
2018-06-07T12:44:55.758Z,5.37
2018-06-07T12:47:30.276Z,6.07
2018-06-07T12:50:04.551Z,5.60
2018-06-07T12:52:38.829Z,5.43
2018-06-07T12:55:13.241Z,5.60
2018-06-07T12:57:47.410Z,5.73
2018-06-07T13:00:21.723Z,5.90
2018-06-07T13:02:55.974Z,5.87
2018-06-07T13:05:30.296Z,6.10
2018-06-07T13:08:04.507Z,5.40
2018-06-07T13:10:38.759Z,6.00
2018-06-07T13:13:13.014Z,5.47
2018-06-07T13:15:47.383Z,5.90
2018-06-07T13:18:21.815Z,6.40
2018-06-07T13:20:56.219Z,5.73
2018-06-07T13:23:30.520Z,5.50
2018-06-07T13:26:05.071Z,6.23
2018-06-07T13:28:39.306Z,5.73
2018-06-07T13:31:13.486Z,5.90
2018-06-07T13:33:47.642Z,5.53
2018-06-07T13:36:22.032Z,5.93
2018-06-07T13:38:56.326Z,6.63
2018-06-07T13:41:30.670Z,6.13
2018-06-07T13:44:04.987Z,5.80
2018-06-07T13:46:39.307Z,6.50
2018-06-07T13:49:13.486Z,6.33
2018-06-07T13:51:47.799Z,6.47
2018-06-07T13:54:22.009Z,6.07
2018-06-07T13:56:56.442Z,6.57
2018-06-07T13:59:30.781Z,6.60
2018-06-07T14:02:05.043Z,6.17
2018-06-07T14:04:39.245Z,6.20
2018-06-07T14:07:13.538Z,6.13
2018-06-07T14:09:47.976Z,6.13
2018-06-07T14:12:22.146Z,6.30
2018-06-07T14:14:56.383Z,5.97
2018-06-07T14:17:32.185Z,6.10
2018-06-07T14:20:06.649Z,5.80
2018-06-07T14:22:40.972Z,6.10
2018-06-07T14:25:15.484Z,6.07
2018-06-07T14:27:51.047Z,6.20
2018-06-07T14:30:26.749Z,6.43
2018-06-07T14:33:01.410Z,6.80
2018-06-07T14:35:35.585Z,6.93
2018-06-07T14:38:09.722Z,6.43
2018-06-07T14:40:43.986Z,6.07
2018-06-07T14:43:18.182Z,6.57
2018-06-07T14:45:52.388Z,6.90
2018-06-07T14:48:26.638Z,5.90
2018-06-07T14:51:00.922Z,5.60
2018-06-07T14:53:35.258Z,6.23
2018-06-07T14:56:09.655Z,6.50
2018-06-07T14:58:43.903Z,6.40
2018-06-07T15:01:18.235Z,6.03
2018-06-07T15:03:52.427Z,6.40
2018-06-07T15:06:26.864Z,6.20
2018-06-07T15:09:00.970Z,6.40
2018-06-07T15:11:35.285Z,6.27
2018-06-07T15:14:09.604Z,6.63
2018-06-07T15:16:43.719Z,6.20
2018-06-07T15:19:18.029Z,6.40
2018-06-07T15:21:52.328Z,6.10
2018-06-07T15:24:26.613Z,6.10
2018-06-07T15:27:00.878Z,5.90
2018-06-07T15:29:35.246Z,8.20
2018-06-07T15:32:09.471Z,6.27
2018-06-07T15:34:43.784Z,6.80
2018-06-07T15:37:18.071Z,6.57
2018-06-07T15:39:53.213Z,6.83
2018-06-07T15:42:27.490Z,6.57
2018-06-07T15:45:01.690Z,6.50
2018-06-07T15:47:36.035Z,6.57
2018-06-07T15:50:10.486Z,6.00
2018-06-07T15:52:44.672Z,7.10
2018-06-07T15:55:19.011Z,6.83
2018-06-07T15:57:53.368Z,6.47
2018-06-07T16:00:27.682Z,5.80
2018-06-07T16:03:01.983Z,6.60
2018-06-07T16:05:36.260Z,6.70
2018-06-07T16:08:10.672Z,6.60
2018-06-07T16:10:45.083Z,6.43
2018-06-07T16:13:19.386Z,6.60
2018-06-07T16:15:53.720Z,6.70
2018-06-07T16:18:27.939Z,6.70
2018-06-07T16:21:02.264Z,6.97
2018-06-07T16:23:36.551Z,6.73
2018-06-07T16:26:10.733Z,6.60
2018-06-07T16:28:44.994Z,6.23
2018-06-07T16:31:19.303Z,6.43
2018-06-07T16:33:53.807Z,7.00
2018-06-07T16:36:28.161Z,6.33
2018-06-07T16:39:02.381Z,6.50
2018-06-07T16:41:36.594Z,6.70
2018-06-07T16:44:10.761Z,7.00
2018-06-07T16:46:45.112Z,6.70
2018-06-07T16:49:19.366Z,6.67
2018-06-07T16:51:53.671Z,6.30
2018-06-07T16:54:27.929Z,6.40
2018-06-07T16:57:02.380Z,6.77
2018-06-07T16:59:36.660Z,6.10
2018-06-07T17:02:11.042Z,6.53
2018-06-07T17:04:45.319Z,6.40
2018-06-07T17:07:19.616Z,5.60
2018-06-07T17:09:54.008Z,7.00
2018-06-07T17:12:28.327Z,5.87
2018-06-07T17:15:02.573Z,6.80
2018-06-07T17:17:36.876Z,6.30
2018-06-07T17:20:11.042Z,6.60
2018-06-07T17:22:45.456Z,6.10
2018-06-07T17:25:19.619Z,6.07
2018-06-07T17:27:53.931Z,6.20
2018-06-07T17:30:28.282Z,6.30
2018-06-07T17:33:02.485Z,6.27
2018-06-07T17:35:36.784Z,6.77
2018-06-07T17:38:11.106Z,7.10
2018-06-07T17:40:45.466Z,6.20
2018-06-07T17:43:19.875Z,6.23
2018-06-07T17:45:54.226Z,6.07
2018-06-07T17:48:28.474Z,6.10
2018-06-07T17:51:02.719Z,6.03
2018-06-07T17:53:37.024Z,6.40
2018-06-07T17:56:11.265Z,5.80
2018-06-07T17:58:45.576Z,6.47
2018-06-07T18:01:19.854Z,6.60
2018-06-07T18:03:54.165Z,6.50
2018-06-07T18:06:28.589Z,5.77
2018-06-07T18:09:02.836Z,6.40
2018-06-07T18:11:37.152Z,6.17
2018-06-07T18:14:11.463Z,6.60
2018-06-07T18:16:45.947Z,6.20
2018-06-07T18:19:20.168Z,6.43
2018-06-07T18:21:54.338Z,6.10
2018-06-07T18:24:28.502Z,6.37
2018-06-07T18:27:02.775Z,6.67
2018-06-07T18:29:37.106Z,6.57
2018-06-07T18:32:11.389Z,6.03
2018-06-07T18:34:45.890Z,6.50
2018-06-07T18:37:20.209Z,6.10
2018-06-07T18:39:54.522Z,7.17
2018-06-07T18:42:28.877Z,5.70
2018-06-07T18:45:03.222Z,6.27
2018-06-07T18:47:37.369Z,6.40
2018-06-07T18:50:11.607Z,6.57
2018-06-07T18:52:45.782Z,6.40
2018-06-07T18:55:20.092Z,6.73
2018-06-07T18:57:54.313Z,6.27
2018-06-07T19:00:28.612Z,6.73
2018-06-07T19:03:02.832Z,6.50
2018-06-07T19:05:37.067Z,7.10
2018-06-07T19:08:11.403Z,6.97
2018-06-07T19:10:45.822Z,6.90
2018-06-07T19:13:25.564Z,6.67
2018-06-07T19:15:59.751Z,7.53
2018-06-07T19:18:34.053Z,7.07
2018-06-07T19:21:08.331Z,6.80
2018-06-07T19:23:42.466Z,6.53
2018-06-07T19:26:22.438Z,6.40
2018-06-07T19:28:56.615Z,6.77
2018-06-07T19:31:30.921Z,6.67
2018-06-07T19:34:10.655Z,6.93
2018-06-07T19:36:44.827Z,7.43
2018-06-07T19:39:24.559Z,7.43
2018-06-07T19:42:07.840Z,6.27
2018-06-07T19:44:42.099Z,7.27
2018-06-07T19:47:16.411Z,7.93
2018-06-07T19:49:50.671Z,7.80
2018-06-07T19:52:24.992Z,8.90
2018-06-07T19:54:59.258Z,7.67
2018-06-07T19:57:33.438Z,7.83
2018-06-07T20:00:08.032Z,6.60
2018-06-07T20:02:42.308Z,7.37
2018-06-07T20:05:16.566Z,6.93
2018-06-07T20:07:50.894Z,6.73
2018-06-07T20:10:25.224Z,7.07
2018-06-07T20:12:59.614Z,7.93
2018-06-07T20:15:33.993Z,8.13
2018-06-07T20:18:08.474Z,7.97
2018-06-07T20:20:42.718Z,7.47
2018-06-07T20:23:16.975Z,7.30
2018-06-07T20:25:51.427Z,7.40
2018-06-07T20:28:25.840Z,8.83
2018-06-07T20:31:00.144Z,8.30
2018-06-07T20:33:34.370Z,7.43
2018-06-07T20:36:08.714Z,7.63
2018-06-07T20:38:43.078Z,7.57
2018-06-07T20:41:17.467Z,7.83
2018-06-07T20:43:51.878Z,7.17
2018-06-07T20:46:26.226Z,8.10
2018-06-07T20:49:00.706Z,7.13
2018-06-07T20:51:34.891Z,8.00
2018-06-07T20:54:09.307Z,7.80
2018-06-07T20:56:43.605Z,7.37
2018-06-07T20:59:17.962Z,7.57
2018-06-07T21:01:52.166Z,8.00
2018-06-07T21:04:26.455Z,7.87
2018-06-07T21:07:00.771Z,8.13
2018-06-07T21:09:35.116Z,8.40
2018-06-07T21:12:09.379Z,8.33
2018-06-07T21:14:43.813Z,8.43
2018-06-07T21:17:18.168Z,8.97
2018-06-07T21:19:52.351Z,9.83
2018-06-07T21:22:26.650Z,8.80
2018-06-07T21:25:00.870Z,8.60
2018-06-07T21:27:35.131Z,10.10
2018-06-07T21:30:09.551Z,9.70
2018-06-07T21:32:43.963Z,8.60
2018-06-07T21:35:18.266Z,8.27
2018-06-07T21:37:52.515Z,7.90
2018-06-07T21:40:26.841Z,8.63
2018-06-07T21:43:01.179Z,9.77
2018-06-07T21:45:35.357Z,9.50
2018-06-07T21:48:09.617Z,10.03
2018-06-07T21:50:43.940Z,9.07
2018-06-07T21:53:18.196Z,11.07
2018-06-07T21:55:52.527Z,19.20
2018-06-07T21:58:27.059Z,13.47
2018-06-07T22:01:01.101Z,9.33
2018-06-07T22:03:35.289Z,8.83
2018-06-07T22:06:09.708Z,9.17
2018-06-07T22:08:43.981Z,10.53
2018-06-07T22:11:18.183Z,10.13
2018-06-07T22:13:52.474Z,10.03
2018-06-07T22:16:26.707Z,9.60
2018-06-07T22:19:01.030Z,10.43
2018-06-07T22:21:35.298Z,10.53
2018-06-07T22:24:09.739Z,9.70
2018-06-07T22:26:44.027Z,9.73
2018-06-07T22:29:18.313Z,9.63
2018-06-07T22:31:52.462Z,11.07
2018-06-07T22:34:26.703Z,11.03
2018-06-07T22:37:01.022Z,10.13
2018-06-07T22:39:35.243Z,9.80
2018-06-07T22:42:09.427Z,9.27
2018-06-07T22:44:43.679Z,9.63
2018-06-07T22:47:17.906Z,10.43
2018-06-07T22:49:52.113Z,10.13
2018-06-07T22:52:26.295Z,10.30
2018-06-07T22:55:00.648Z,10.30
2018-06-07T22:57:34.945Z,10.57
2018-06-07T23:00:09.309Z,9.70
2018-06-07T23:02:49.780Z,9.67
2018-06-07T23:05:24.104Z,9.77
2018-06-07T23:07:58.395Z,9.93
2018-06-07T23:10:32.609Z,9.90
2018-06-07T23:13:06.943Z,10.93
2018-06-07T23:15:41.278Z,10.10
2018-06-07T23:18:15.586Z,10.60
2018-06-07T23:20:49.896Z,9.57
2018-06-07T23:23:24.166Z,10.33
2018-06-07T23:25:58.360Z,10.17
2018-06-07T23:28:32.640Z,10.60
2018-06-07T23:31:06.946Z,10.70
2018-06-07T23:33:41.199Z,10.07
2018-06-07T23:36:15.605Z,11.47
2018-06-07T23:38:49.890Z,10.57
2018-06-07T23:41:24.039Z,10.43
2018-06-07T23:43:58.369Z,10.73
2018-06-07T23:46:32.520Z,10.27
2018-06-07T23:49:06.812Z,10.80
2018-06-07T23:51:41.106Z,11.40
2018-06-07T23:54:15.447Z,10.70
2018-06-07T23:56:49.786Z,10.73
2018-06-07T23:59:24.049Z,10.33
